Time;durP1;ratioP1;P1;durP2;ratioP2;P2;SDS_P1;SDS_P2;PMS_P1;PMS_P2;Temp;Humidity;BMP_temperature;BMP_pressure;BME280_temperature;BME280_humidity;BME280_pressure;Samples;Min_cycle;Max_cycle;Signal;HPM_P1;HPM_P2
2023/06/19 00:00:56;;;;;;;0.00;0.00;;;;;;;19.98;99.28;96071.81;5006761;28;20073;-78
2023/06/19 00:03:42;;;;;;;0.00;0.00;;;;;;;19.94;99.38;96066.25;5007674;28;20784;-78
2023/06/19 00:06:28;;;;;;;0.00;0.00;;;;;;;19.79;99.94;96068.63;5007564;28;20037;-77
2023/06/19 00:09:15;;;;;;;0.00;0.00;;;;;;;19.72;100.00;96071.78;5007892;28;20120;-78
2023/06/19 00:12:01;;;;;;;0.00;0.00;;;;;;;19.62;100.00;96069.38;5009323;28;20038;-78
2023/06/19 00:14:47;;;;;;;0.00;0.00;;;;;;;19.57;100.00;96062.19;5008695;28;20141;-78
2023/06/19 00:17:33;;;;;;;0.00;0.00;;;;;;;19.66;99.43;96063.00;5009237;28;20563;-77
2023/06/19 00:20:19;;;;;;;0.00;0.00;;;;;;;19.75;99.87;96069.22;5008734;28;20053;-78
2023/06/19 00:23:06;;;;;;;0.00;0.00;;;;;;;19.67;100.00;96072.72;5009329;28;20049;-77
2023/06/19 00:25:52;;;;;;;0.00;0.00;;;;;;;19.74;99.84;96072.25;5003761;28;20052;-78
2023/06/19 00:28:39;;;;;;;0.00;0.00;;;;;;;19.63;100.00;96065.56;5007381;28;20092;-77
2023/06/19 00:31:29;;;;;;;0.03;0.03;;;;;;;19.60;100.00;96068.88;5005588;28;20091;-77
2023/06/19 00:34:15;;;;;;;0.00;0.00;;;;;;;19.54;100.00;96068.22;5003605;28;20787;-77
2023/06/19 00:37:01;;;;;;;0.00;0.00;;;;;;;19.51;100.00;96068.81;5004156;28;20084;-77
2023/06/19 00:39:47;;;;;;;0.10;0.10;;;;;;;19.40;100.00;96078.38;5004654;28;20147;-77
2023/06/19 00:42:33;;;;;;;0.10;0.10;;;;;;;19.28;100.00;96070.81;5001798;28;20045;-78
2023/06/19 00:45:18;;;;;;;0.00;0.00;;;;;;;19.15;100.00;96077.97;5003523;28;20045;-78
2023/06/19 00:48:04;;;;;;;0.00;0.00;;;;;;;19.07;100.00;96084.16;5004346;28;20050;-77
2023/06/19 00:50:51;;;;;;;0.00;0.00;;;;;;;18.97;100.00;96086.31;4992583;28;20072;-77
2023/06/19 00:53:37;;;;;;;0.00;0.00;;;;;;;19.03;100.00;96085.84;4990883;28;20412;-77
2023/06/19 00:56:22;;;;;;;0.00;0.00;;;;;;;19.07;100.00;96083.34;5006469;28;20500;-77
2023/06/19 00:59:15;;;;;;;0.00;0.00;;;;;;;19.14;100.00;96081.78;5003922;28;20037;-77
2023/06/19 01:02:03;;;;;;;0.05;0.05;;;;;;;19.04;100.00;96084.75;4988576;28;20474;-77
2023/06/19 01:04:52;;;;;;;0.00;0.00;;;;;;;19.01;100.00;96085.38;5004761;28;20128;-77
2023/06/19 01:07:52;;;;;;;0.00;0.00;;;;;;;18.86;100.00;96091.19;5000580;28;20041;-78
2023/06/19 01:10:49;;;;;;;0.03;0.03;;;;;;;18.93;100.00;96088.84;4988964;28;20049;-78
2023/06/19 01:13:44;;;;;;;0.00;0.00;;;;;;;19.03;100.00;96080.44;4996003;28;20052;-78
2023/06/19 01:16:31;;;;;;;0.00;0.00;;;;;;;19.10;100.00;96072.66;4998381;28;20869;-78
2023/06/19 01:19:20;;;;;;;0.00;0.00;;;;;;;19.03;100.00;96076.94;4994210;28;20033;-78
2023/06/19 01:22:06;;;;;;;0.00;0.00;;;;;;;19.16;100.00;96073.34;4994288;28;20081;-78
2023/06/19 01:24:52;;;;;;;0.00;0.00;;;;;;;19.16;100.00;96079.56;5005491;28;20034;-78
2023/06/19 01:27:38;;;;;;;0.08;0.00;;;;;;;19.09;100.00;96084.63;5003453;28;20152;-77
2023/06/19 01:30:25;;;;;;;0.00;0.00;;;;;;;19.06;100.00;96079.81;5006039;28;21534;-77
2023/06/19 01:33:20;;;;;;;0.00;0.00;;;;;;;19.18;100.00;96095.50;4992988;28;20052;-78
2023/06/19 01:36:09;;;;;;;0.00;0.00;;;;;;;19.39;100.00;96103.91;5014798;28;20041;-78
2023/06/19 01:38:58;;;;;;;0.00;0.00;;;;;;;19.49;100.00;96092.75;5013385;28;20059;-78
2023/06/19 01:41:47;;;;;;;0.10;0.10;;;;;;;19.50;100.00;96105.22;5025766;28;20041;-78
2023/06/19 01:44:33;;;;;;;0.05;0.05;;;;;;;19.57;100.00;96105.59;5011506;28;20048;-78
2023/06/19 01:47:20;;;;;;;0.10;0.10;;;;;;;19.56;100.00;96103.97;5022103;28;20087;-78
2023/06/19 01:50:06;;;;;;;0.00;0.00;;;;;;;19.47;100.00;96108.56;5027209;28;20110;-78
2023/06/19 01:52:52;;;;;;;0.00;0.00;;;;;;;19.42;100.00;96120.34;5028555;28;20096;-78
2023/06/19 01:55:38;;;;;;;0.03;0.03;;;;;;;19.52;100.00;96119.25;5025120;28;20565;-78
2023/06/19 01:58:24;;;;;;;0.00;0.00;;;;;;;19.61;100.00;96116.59;5025008;28;20041;-77
2023/06/19 02:01:57;;;;;;;0.00;0.00;;;;;;;19.75;100.00;96106.44;5014664;28;20170;-78
2023/06/19 02:04:43;;;;;;;0.10;0.10;;;;;;;19.76;100.00;96097.97;5027690;28;20471;-77
2023/06/19 02:07:29;;;;;;;0.05;0.05;;;;;;;19.72;100.00;96096.22;5025827;28;20037;-78
2023/06/19 02:10:15;;;;;;;0.10;0.10;;;;;;;19.66;100.00;96094.75;5027206;28;20052;-78
2023/06/19 02:13:00;;;;;;;0.00;0.00;;;;;;;19.67;100.00;96099.06;5029025;28;20048;-78
2023/06/19 02:15:46;;;;;;;0.10;0.10;;;;;;;19.71;100.00;96103.56;5029464;28;20033;-77
2023/06/19 02:18:32;;;;;;;0.10;0.10;;;;;;;19.67;100.00;96099.88;5010194;28;20048;-78
2023/06/19 02:21:18;;;;;;;0.10;0.10;;;;;;;19.64;100.00;96100.50;5024053;28;20140;-78
2023/06/19 02:24:04;;;;;;;0.00;0.00;;;;;;;19.68;100.00;96101.47;5027533;28;20033;-78
2023/06/19 02:26:50;;;;;;;0.00;0.00;;;;;;;19.65;100.00;96101.31;5025091;28;20048;-78
2023/06/19 02:29:37;;;;;;;0.00;0.00;;;;;;;19.50;100.00;96102.50;5025851;28;20573;-78
2023/06/19 02:36:30;;;;;;;0.10;0.10;;;;;;;19.51;100.00;96117.66;5011197;28;20135;-77
2023/06/19 02:39:18;;;;;;;0.00;0.00;;;;;;;19.59;100.00;96116.94;5010833;28;20240;-77
2023/06/19 02:42:04;;;;;;;0.03;0.03;;;;;;;19.72;100.00;96115.22;5012550;28;20073;-78
2023/06/19 02:44:50;;;;;;;0.00;0.00;;;;;;;19.79;100.00;96121.00;4997701;28;20049;-78
2023/06/19 02:47:36;;;;;;;0.00;0.00;;;;;;;19.81;100.00;96126.09;4996761;28;20045;-78
2023/06/19 02:50:22;;;;;;;0.00;0.00;;;;;;;19.85;100.00;96121.66;4995997;28;20037;-78
2023/06/19 02:53:08;;;;;;;0.00;0.00;;;;;;;19.85;100.00;96127.88;5007635;28;20040;-78
2023/06/19 02:55:54;;;;;;;0.10;0.10;;;;;;;19.88;100.00;96140.00;5007209;28;20033;-78
2023/06/19 02:58:41;;;;;;;0.10;0.10;;;;;;;19.84;100.00;96130.88;5003504;28;20041;-78
2023/06/19 03:01:27;;;;;;;0.00;0.00;;;;;;;19.82;100.00;96133.13;4999028;28;20880;-78
2023/06/19 03:04:13;;;;;;;0.00;0.00;;;;;;;19.75;100.00;96131.66;5005383;28;20041;-78
2023/06/19 03:06:59;;;;;;;0.10;0.10;;;;;;;19.71;100.00;96135.34;5002537;28;20068;-78
2023/06/19 03:09:45;;;;;;;0.10;0.10;;;;;;;19.75;100.00;96141.72;5006040;28;20152;-78
2023/06/19 03:12:31;;;;;;;0.08;0.08;;;;;;;19.75;100.00;96141.72;5011515;28;20053;-77
2023/06/19 03:15:17;;;;;;;0.00;0.00;;;;;;;19.79;99.52;96155.47;4997972;28;20700;-77
2023/06/19 03:18:09;;;;;;;0.00;0.00;;;;;;;19.71;100.00;96152.41;4996762;28;20048;-77
2023/06/19 03:20:56;;;;;;;0.00;0.00;;;;;;;19.76;99.76;96160.41;5009120;28;20128;-78
2023/06/19 03:23:42;;;;;;;0.00;0.00;;;;;;;19.82;100.00;96161.06;4995527;28;20045;-78
2023/06/19 03:26:28;;;;;;;0.10;0.10;;;;;;;19.88;99.68;96157.09;5003371;28;20125;-78
2023/06/19 03:29:19;;;;;;;0.10;0.10;;;;;;;19.90;100.00;96156.78;4992195;28;20037;-78
2023/06/19 03:32:12;;;;;;;0.00;0.00;;;;;;;19.95;100.00;96154.72;4984711;28;20034;-78
2023/06/19 03:39:08;;;;;;;0.05;0.05;;;;;;;19.98;99.40;96159.50;5020510;28;20068;-78
2023/06/19 03:41:54;;;;;;;0.00;0.00;;;;;;;19.93;100.00;96165.13;5024113;28;20047;-77
2023/06/19 03:44:40;;;;;;;0.00;0.00;;;;;;;19.96;100.00;96169.09;5013020;28;20037;-78
2023/06/19 03:47:26;;;;;;;0.00;0.00;;;;;;;19.98;100.00;96170.38;5009831;28;20880;-77
2023/06/19 03:50:12;;;;;;;0.10;0.10;;;;;;;19.99;100.00;96180.13;5010929;28;20067;-78
2023/06/19 03:52:58;;;;;;;0.10;0.10;;;;;;;19.97;100.00;96179.66;5023459;28;20036;-78
2023/06/19 03:55:44;;;;;;;0.08;0.08;;;;;;;19.93;100.00;96169.75;5025761;28;20511;-78
2023/06/19 03:58:32;;;;;;;0.00;0.00;;;;;;;19.87;100.00;96176.44;5008785;28;20033;-78
2023/06/19 04:01:17;;;;;;;0.00;0.00;;;;;;;19.82;100.00;96192.84;5007184;28;20049;-78
2023/06/19 04:04:04;;;;;;;0.00;0.00;;;;;;;19.84;100.00;96187.91;5010594;28;20040;-77
2023/06/19 04:06:49;;;;;;;0.10;0.10;;;;;;;19.84;100.00;96175.13;5028625;28;20042;-78
2023/06/19 04:09:35;;;;;;;0.00;0.00;;;;;;;19.75;100.00;96191.38;5022940;28;20453;-77
2023/06/19 04:12:21;;;;;;;0.10;0.10;;;;;;;19.74;100.00;96187.06;5013284;28;20045;-77
2023/06/19 04:15:08;;;;;;;0.00;0.00;;;;;;;19.64;100.00;96192.78;5012063;28;20440;-78
2023/06/19 04:17:54;;;;;;;0.00;0.00;;;;;;;19.70;100.00;96194.25;5021680;28;20049;-78
2023/06/19 04:20:40;;;;;;;0.10;0.10;;;;;;;19.69;100.00;96206.22;5026186;28;20049;-77
2023/06/19 04:23:25;;;;;;;0.05;0.05;;;;;;;19.48;100.00;96214.06;5023662;28;20786;-77
2023/06/19 04:26:11;;;;;;;0.00;0.00;;;;;;;19.59;100.00;96208.38;5010808;28;20036;-77
2023/06/19 04:29:00;;;;;;;0.00;0.00;;;;;;;19.53;100.00;96206.88;5014482;28;20091;-78
2023/06/19 04:31:49;;;;;;;0.10;0.10;;;;;;;19.63;100.00;96212.91;5026024;28;20048;-78
2023/06/19 04:34:35;;;;;;;0.00;0.00;;;;;;;19.57;100.00;96216.84;5022997;28;20051;-78
2023/06/19 04:37:21;;;;;;;0.10;0.10;;;;;;;19.43;100.00;96227.75;5023026;28;20120;-78
2023/06/19 04:40:07;;;;;;;0.10;0.10;;;;;;;19.38;100.00;96227.09;5026798;28;20045;-77
2023/06/19 04:42:53;;;;;;;0.10;0.10;;;;;;;19.44;100.00;96229.34;5001593;28;20136;-77
2023/06/19 04:45:39;;;;;;;0.10;0.10;;;;;;;19.46;100.00;96239.91;5022146;28;20041;-78
2023/06/19 04:48:25;;;;;;;0.00;0.00;;;;;;;19.44;100.00;96231.25;5022340;28;20041;-77
2023/06/19 04:51:11;;;;;;;0.00;0.00;;;;;;;19.42;100.00;96245.16;5024956;28;20052;-77
2023/06/19 04:53:57;;;;;;;0.00;0.00;;;;;;;19.39;100.00;96256.63;5024431;28;20140;-77
2023/06/19 04:56:43;;;;;;;0.00;0.00;;;;;;;19.40;100.00;96252.81;5026191;28;20041;-78
2023/06/19 04:59:30;;;;;;;0.00;0.00;;;;;;;19.44;100.00;96258.41;5023823;28;20123;-77
2023/06/19 05:02:16;;;;;;;0.10;0.10;;;;;;;19.37;100.00;96250.69;5027220;28;20065;-77
2023/06/19 05:09:10;;;;;;;0.08;0.08;;;;;;;19.48;100.00;96243.91;5023323;28;20090;-77
2023/06/19 05:11:57;;;;;;;0.08;0.08;;;;;;;19.28;100.00;96230.84;5027035;28;20081;-77
2023/06/19 05:14:42;;;;;;;0.00;0.00;;;;;;;19.20;100.00;96242.44;5023968;28;20037;-78
2023/06/19 05:17:28;;;;;;;0.10;0.10;;;;;;;19.28;100.00;96243.63;5022211;28;20385;-78
2023/06/19 05:20:15;;;;;;;0.10;0.10;;;;;;;19.25;100.00;96249.66;5025696;28;20083;-78
2023/06/19 05:23:01;;;;;;;0.00;0.00;;;;;;;19.29;100.00;96245.22;5013290;28;20104;-78
2023/06/19 05:25:46;;;;;;;0.10;0.10;;;;;;;19.42;100.00;96238.91;5025830;28;20410;-78
2023/06/19 05:28:33;;;;;;;0.00;0.00;;;;;;;19.53;100.00;96239.44;5024070;28;20041;-78
2023/06/19 05:31:19;;;;;;;0.10;0.10;;;;;;;19.61;100.00;96242.28;5027129;28;20482;-79
2023/06/19 05:34:04;;;;;;;0.10;0.10;;;;;;;19.64;100.00;96254.41;5022699;28;20034;-78
2023/06/19 05:40:34;;;;;;;0.10;0.10;;;;;;;19.46;100.00;96256.19;5011159;28;20129;-78
2023/06/19 05:43:24;;;;;;;0.10;0.10;;;;;;;19.58;100.00;96252.94;5008922;28;20049;-78
2023/06/19 05:46:11;;;;;;;0.10;0.10;;;;;;;19.58;100.00;96242.06;5011206;28;20037;-78
2023/06/19 05:48:57;;;;;;;0.03;0.03;;;;;;;19.56;100.00;96250.50;5008956;28;20045;-78
2023/06/19 05:51:43;;;;;;;0.10;0.10;;;;;;;19.51;100.00;96252.53;5008948;28;20038;-77
2023/06/19 05:54:29;;;;;;;0.10;0.10;;;;;;;19.56;100.00;96266.78;5008695;28;20096;-78
2023/06/19 05:57:20;;;;;;;0.10;0.10;;;;;;;19.45;100.00;96265.41;5012907;28;20049;-78
2023/06/19 06:00:10;;;;;;;0.05;0.05;;;;;;;19.38;100.00;96274.03;5014399;28;20038;-78
2023/06/19 06:03:02;;;;;;;0.10;0.10;;;;;;;19.32;100.00;96274.44;5013155;28;20033;-78
2023/06/19 06:05:49;;;;;;;0.08;0.08;;;;;;;19.41;100.00;96272.59;4998219;28;20049;-78
2023/06/19 06:09:13;;;;;;;0.08;0.08;;;;;;;19.82;100.00;96285.94;5009810;28;20516;-78
2023/06/19 06:11:59;;;;;;;0.10;0.10;;;;;;;20.10;100.00;96286.56;5012991;28;20060;-78
2023/06/19 06:14:45;;;;;;;0.10;0.10;;;;;;;20.53;100.00;96297.59;5010587;28;21355;-79
2023/06/19 06:17:31;;;;;;;0.10;0.10;;;;;;;20.83;100.00;96295.91;5011932;28;20069;-78
2023/06/19 06:20:17;;;;;;;0.10;0.10;;;;;;;20.85;100.00;96287.44;5016365;28;20041;-79
2023/06/19 06:23:04;;;;;;;0.00;0.00;;;;;;;20.92;100.00;96306.00;5011838;28;20041;-79
2023/06/19 06:25:50;;;;;;;0.10;0.10;;;;;;;20.84;100.00;96302.94;5016778;28;20056;-79
2023/06/19 06:28:36;;;;;;;0.00;0.00;;;;;;;20.79;100.00;96302.31;5010463;28;20662;-78
2023/06/19 06:31:23;;;;;;;0.00;0.00;;;;;;;20.44;100.00;96304.94;5012199;28;20150;-78
2023/06/19 06:34:09;;;;;;;0.10;0.10;;;;;;;20.11;100.00;96299.03;5011606;28;20056;-78
2023/06/19 06:36:55;;;;;;;0.10;0.10;;;;;;;20.23;100.00;96298.44;5014031;28;20560;-79
2023/06/19 06:39:40;;;;;;;0.00;0.00;;;;;;;20.46;100.00;96288.31;5020514;28;20053;-79
2023/06/19 06:42:26;;;;;;;0.10;0.10;;;;;;;20.67;100.00;96294.75;5024291;28;20056;-78
2023/06/19 06:45:13;;;;;;;0.00;0.00;;;;;;;20.74;100.00;96291.56;5026951;28;20111;-78
2023/06/19 06:47:59;;;;;;;0.00;0.00;;;;;;;20.80;100.00;96302.00;5026513;28;20048;-78
2023/06/19 06:50:44;;;;;;;0.10;0.10;;;;;;;20.92;100.00;96301.34;5026959;28;20068;-79
2023/06/19 06:53:32;;;;;;;0.00;0.00;;;;;;;20.88;100.00;96291.44;5024003;28;20044;-79
2023/06/19 06:56:17;;;;;;;0.05;0.05;;;;;;;20.99;100.00;96300.88;5028465;28;20581;-78
2023/06/19 06:59:03;;;;;;;0.00;0.00;;;;;;;21.06;100.00;96290.31;5025839;28;20546;-78
2023/06/19 07:01:49;;;;;;;0.00;0.00;;;;;;;21.23;100.00;96295.75;5027859;28;20036;-76
2023/06/19 07:04:35;;;;;;;0.03;0.03;;;;;;;21.34;100.00;96279.97;5024026;28;20052;-78
2023/06/19 07:11:28;;;;;;;0.00;0.00;;;;;;;22.04;100.00;96310.56;5024930;28;20037;-78
2023/06/19 07:14:14;;;;;;;0.10;0.10;;;;;;;22.39;100.00;96309.34;5024955;28;20029;-78
2023/06/19 07:17:00;;;;;;;0.00;0.00;;;;;;;22.28;100.00;96316.28;5026783;28;20094;-79
2023/06/19 07:19:46;;;;;;;0.03;0.03;;;;;;;22.37;100.00;96322.50;5024758;28;20099;-79
2023/06/19 07:22:32;;;;;;;0.10;0.10;;;;;;;22.43;100.00;96313.03;5021304;28;20135;-78
2023/06/19 07:25:18;;;;;;;0.00;0.00;;;;;;;22.18;100.00;96313.94;5027423;28;20041;-78
2023/06/19 07:28:04;;;;;;;0.10;0.10;;;;;;;22.10;100.00;96317.47;5025416;28;20691;-78
2023/06/19 07:30:52;;;;;;;0.00;0.00;;;;;;;22.10;100.00;96317.47;5026507;28;20096;-79
2023/06/19 07:33:38;;;;;;;0.10;0.10;;;;;;;22.11;100.00;96327.25;5023206;28;20586;-79
2023/06/19 07:36:24;;;;;;;0.08;0.08;;;;;;;22.38;100.00;96324.09;5023490;28;20771;-78
2023/06/19 07:43:17;;;;;;;0.10;0.10;;;;;;;21.78;100.00;96325.03;5011937;28;20890;-79
2023/06/19 07:46:04;;;;;;;0.10;0.10;;;;;;;21.97;100.00;96330.94;5012743;28;20068;-78
2023/06/19 07:48:50;;;;;;;0.10;0.10;;;;;;;22.23;100.00;96327.34;5012895;28;20041;-78
2023/06/19 07:51:35;;;;;;;0.10;0.10;;;;;;;22.16;100.00;96325.13;5010754;28;20052;-78
2023/06/19 07:54:21;;;;;;;0.10;0.10;;;;;;;22.34;100.00;96322.38;5010024;28;20514;-78
2023/06/19 07:57:07;;;;;;;0.10;0.10;;;;;;;22.61;100.00;96332.00;5013624;28;21121;-79
2023/06/19 07:59:54;;;;;;;0.10;0.10;;;;;;;22.72;100.00;96322.31;5012103;28;20064;-78
2023/06/19 08:02:41;;;;;;;0.10;0.10;;;;;;;22.76;100.00;96334.19;5009723;28;22106;-78
2023/06/19 08:05:27;;;;;;;0.08;0.08;;;;;;;22.74;100.00;96333.72;5009875;28;20072;-78
2023/06/19 08:08:13;;;;;;;0.08;0.08;;;;;;;22.95;100.00;96331.81;5011828;28;20924;-79
2023/06/19 08:11:49;;;;;;;0.00;0.00;;;;;;;23.30;100.00;96331.59;5013715;28;20045;-79
2023/06/19 08:14:35;;;;;;;0.00;0.00;;;;;;;23.14;100.00;96338.78;5006649;28;20156;-78
2023/06/19 08:17:21;;;;;;;0.08;0.08;;;;;;;23.04;100.00;96342.72;5012491;28;20048;-79
2023/06/19 08:20:07;;;;;;;0.00;0.00;;;;;;;23.26;100.00;96327.91;5013497;28;20073;-78
2023/06/19 08:22:53;;;;;;;0.10;0.10;;;;;;;23.52;100.00;96328.53;5011392;28;20041;-79
2023/06/19 08:25:39;;;;;;;0.10;0.10;;;;;;;23.98;100.00;96345.00;4995423;28;20056;-78
2023/06/19 08:28:24;;;;;;;0.00;0.00;;;;;;;23.44;100.00;96348.50;5010230;28;20040;-79
2023/06/19 08:31:10;;;;;;;0.00;0.00;;;;;;;23.77;100.00;96347.78;5010544;28;20034;-79
2023/06/19 08:33:56;;;;;;;0.00;0.00;;;;;;;24.03;100.00;96345.56;4996804;28;20411;-78
2023/06/19 08:36:43;;;;;;;0.10;0.10;;;;;;;23.47;100.00;96342.38;4995578;28;20099;-79
2023/06/19 08:39:29;;;;;;;0.10;0.10;;;;;;;24.04;100.00;96338.97;5011391;28;20143;-78
2023/06/19 08:46:23;;;;;;;0.10;0.10;;;;;;;24.19;99.34;96338.31;5010010;28;20030;-78
2023/06/19 08:49:12;;;;;;;0.10;0.10;;;;;;;24.00;99.69;96338.06;4996278;28;20712;-78
2023/06/19 08:51:58;;;;;;;0.08;0.08;;;;;;;24.04;97.12;96346.38;5010828;28;20088;-78
2023/06/19 08:54:44;;;;;;;0.10;0.10;;;;;;;24.27;96.56;96349.50;5010363;28;20045;-78
2023/06/19 08:57:50;;;;;;;0.00;0.00;;;;;;;24.59;94.64;96340.47;5009407;28;20041;-79
2023/06/19 09:00:35;;;;;;;0.10;0.10;;;;;;;24.59;95.28;96345.13;5010121;28;20042;-79
2023/06/19 09:03:22;;;;;;;0.00;0.00;;;;;;;24.53;94.50;96344.56;5009117;28;20653;-80
2023/06/19 09:06:08;;;;;;;0.03;0.03;;;;;;;24.56;94.54;96343.88;5012534;28;20111;-78
2023/06/19 09:09:01;;;;;;;0.10;0.10;;;;;;;24.16;95.98;96339.00;5000492;28;20034;-78
2023/06/19 09:16:06;;;;;;;0.10;0.10;;;;;;;24.54;96.34;96343.41;5006502;28;20052;-79
2023/06/19 09:22:57;;;;;;;;;;;;;;;24.73;94.65;96338.16;5006478;28;20040;-78
2023/06/19 09:25:48;;;;;;;0.10;0.10;;;;;;;25.21;93.73;96347.50;5009155;28;20648;-78
2023/06/19 09:28:42;;;;;;;0.10;0.10;;;;;;;25.04;90.55;96350.50;5008251;28;20136;-78
2023/06/19 09:31:34;;;;;;;0.10;0.10;;;;;;;24.71;91.43;96351.41;5010890;28;20117;-78
2023/06/19 09:34:22;;;;;;;0.10;0.10;;;;;;;24.64;91.75;96362.09;5014784;28;20037;-79
2023/06/19 09:37:10;;;;;;;0.00;0.00;;;;;;;25.12;90.97;96365.97;4991735;28;20127;-78
2023/06/19 09:40:06;;;;;;;0.10;0.10;;;;;;;25.17;90.12;96370.44;5009807;28;20037;-78
2023/06/19 09:42:54;;;;;;;0.10;0.10;;;;;;;25.38;90.00;96359.34;5014928;28;20037;-79
2023/06/19 09:45:51;;;;;;;0.00;0.00;;;;;;;25.50;91.47;96359.28;5014895;28;20792;-78
2023/06/19 09:48:42;;;;;;;0.10;0.10;;;;;;;25.36;90.21;96367.09;5028114;28;20162;-79
2023/06/19 09:51:37;;;;;;;0.00;0.00;;;;;;;24.80;90.92;96369.63;5027144;28;20120;-80
2023/06/19 09:54:25;;;;;;;0.00;0.00;;;;;;;24.51;92.61;96367.91;5024027;28;20175;-79
2023/06/19 09:57:11;;;;;;;0.10;0.10;;;;;;;24.78;91.48;96364.50;5028419;28;20084;-78
2023/06/19 09:59:59;;;;;;;0.10;0.10;;;;;;;25.07;90.86;96359.97;5028059;28;20076;-78
2023/06/19 10:02:46;;;;;;;0.10;0.10;;;;;;;25.53;89.43;96364.09;5026741;28;20037;-78
2023/06/19 10:05:32;;;;;;;0.10;0.10;;;;;;;25.60;88.34;96352.53;5025469;28;20044;-79
2023/06/19 10:08:30;;;;;;;0.00;0.00;;;;;;;25.58;87.35;96360.28;5028643;28;20045;-78
2023/06/19 10:11:16;;;;;;;0.10;0.10;;;;;;;25.94;87.03;96351.16;5028378;28;20091;-79
2023/06/19 10:14:07;;;;;;;0.00;0.00;;;;;;;26.07;87.29;96360.94;5027316;28;20040;-77
2023/06/19 10:16:52;;;;;;;0.03;0.03;;;;;;;26.47;84.98;96369.06;5027209;28;20404;-78
2023/06/19 10:19:49;;;;;;;0.00;0.00;;;;;;;25.85;86.16;96376.00;5027029;28;20080;-79
2023/06/19 10:22:35;;;;;;;0.10;0.10;;;;;;;25.76;87.97;96372.63;5026614;28;20068;-79
2023/06/19 10:25:24;;;;;;;0.00;0.00;;;;;;;26.27;84.74;96364.59;5030858;28;20731;-79
2023/06/19 10:28:24;;;;;;;0.10;0.10;;;;;;;26.21;82.95;96361.28;5027795;28;20037;-78
2023/06/19 10:31:10;;;;;;;0.00;0.00;;;;;;;26.52;82.60;96351.53;5027516;28;20042;-78
2023/06/19 10:33:56;;;;;;;0.03;0.03;;;;;;;26.45;82.65;96362.31;5026046;28;20116;-77
2023/06/19 10:36:42;;;;;;;0.00;0.00;;;;;;;26.09;84.19;96364.13;5026819;28;20040;-79
2023/06/19 10:39:28;;;;;;;0.00;0.00;;;;;;;25.94;84.90;96362.94;4992199;28;20052;-78
2023/06/19 10:42:13;;;;;;;0.10;0.10;;;;;;;26.78;82.88;96362.78;5026442;28;20048;-78
2023/06/19 10:45:03;;;;;;;0.10;0.10;;;;;;;27.58;80.05;96357.91;5025302;28;20111;-79
2023/06/19 10:47:50;;;;;;;0.10;0.10;;;;;;;27.69;78.66;96350.72;5025902;28;20126;-78
2023/06/19 10:50:41;;;;;;;0.00;0.00;;;;;;;26.01;82.78;96349.44;5024483;28;20037;-78
2023/06/19 10:53:31;;;;;;;0.00;0.00;;;;;;;27.16;81.12;96339.38;5019553;28;20048;-79
2023/06/19 10:56:20;;;;;;;0.10;0.10;;;;;;;27.01;80.25;96345.66;5030052;28;20036;-79
2023/06/19 10:59:09;;;;;;;0.10;0.10;;;;;;;27.52;78.16;96340.13;5027530;28;20279;-79
2023/06/19 11:01:55;;;;;;;0.10;0.10;;;;;;;28.16;76.46;96333.16;5029126;28;20110;-80
2023/06/19 11:04:40;;;;;;;0.10;0.10;;;;;;;29.12;73.03;96335.59;5024944;28;20049;-78
2023/06/19 11:07:27;;;;;;;0.10;0.10;;;;;;;28.36;73.46;96331.97;5024980;28;20080;-79
2023/06/19 11:10:19;;;;;;;0.10;0.10;;;;;;;27.57;75.31;96337.91;5024998;28;20029;-78
2023/06/19 11:13:05;;;;;;;0.10;0.10;;;;;;;27.69;78.22;96334.22;5023662;28;20041;-78
2023/06/19 11:15:50;;;;;;;0.05;0.05;;;;;;;28.53;74.88;96333.44;5028932;28;20037;-78
2023/06/19 11:18:36;;;;;;;0.10;0.10;;;;;;;29.20;72.30;96336.50;5010380;28;20045;-78
2023/06/19 11:21:30;;;;;;;0.00;0.00;;;;;;;29.47;68.07;96333.69;5026956;28;20083;-78
2023/06/19 11:24:59;;;;;;;0.10;0.10;;;;;;;29.62;68.08;96335.50;5021400;28;20063;-78
2023/06/19 11:27:51;;;;;;;0.10;0.10;;;;;;;31.03;61.00;96329.00;5023481;28;20056;-79
2023/06/19 11:30:37;;;;;;;0.10;0.10;;;;;;;32.49;50.17;96317.78;5025117;28;20053;-79
2023/06/19 11:33:24;;;;;;;0.10;0.10;;;;;;;33.09;46.26;96309.47;5024438;28;20041;-79
2023/06/19 11:36:09;;;;;;;0.20;0.20;;;;;;;33.84;38.41;96312.00;5026464;28;20501;-78
2023/06/19 11:38:56;;;;;;;0.10;0.10;;;;;;;33.99;38.37;96310.78;5000990;28;20607;-79
2023/06/19 11:41:45;;;;;;;0.00;0.00;;;;;;;32.70;43.53;96315.03;5022057;28;20041;-78
2023/06/19 11:44:31;;;;;;;0.00;0.00;;;;;;;30.79;56.47;96320.16;5008705;28;20053;-78
2023/06/19 11:47:18;;;;;;;0.00;0.00;;;;;;;29.94;63.86;96322.06;5024033;28;20037;-78
2023/06/19 11:50:06;;;;;;;0.10;0.10;;;;;;;32.79;51.67;96311.88;5011983;28;20671;-78
2023/06/19 11:52:51;;;;;;;0.10;0.10;;;;;;;38.03;30.56;96311.88;5024469;28;20056;-79
2023/06/19 11:55:38;;;;;;;0.00;0.00;;;;;;;40.72;25.20;96310.72;5024024;28;20041;-78
2023/06/19 11:58:23;;;;;;;0.00;0.00;;;;;;;38.84;26.52;96306.44;5022909;28;20045;-78
2023/06/19 12:01:09;;;;;;;0.10;0.10;;;;;;;40.07;25.29;96305.50;5011104;28;20050;-79
2023/06/19 12:03:55;;;;;;;0.10;0.10;;;;;;;40.58;24.66;96303.53;5027403;28;20139;-79
2023/06/19 12:06:41;;;;;;;0.00;0.00;;;;;;;35.90;28.09;96317.09;5024357;28;20048;-79
2023/06/19 12:09:27;;;;;;;0.00;0.00;;;;;;;37.07;28.19;96314.53;5025634;28;20674;-78
2023/06/19 12:12:13;;;;;;;0.10;0.10;;;;;;;39.66;23.95;96306.31;5026316;28;20033;-79
2023/06/19 12:14:59;;;;;;;0.10;0.10;;;;;;;40.15;23.33;96317.28;5027263;28;20033;-78
2023/06/19 12:17:46;;;;;;;0.00;0.00;;;;;;;35.83;30.56;96306.81;5023027;28;21584;-79
2023/06/19 12:20:31;;;;;;;0.10;0.10;;;;;;;35.44;33.96;96310.06;5024248;28;20044;-79
2023/06/19 12:23:17;;;;;;;0.10;0.10;;;;;;;35.87;33.37;96312.31;5026104;28;20060;-79
2023/06/19 12:26:03;;;;;;;0.10;0.10;;;;;;;39.86;25.52;96298.53;5026806;28;20042;-79
2023/06/19 12:28:49;;;;;;;0.05;0.05;;;;;;;43.15;22.16;96299.66;5025938;28;20550;-79
2023/06/19 12:31:36;;;;;;;0.00;0.00;;;;;;;38.77;25.80;96297.47;5025336;28;20040;-79
2023/06/19 12:34:22;;;;;;;0.00;0.00;;;;;;;36.11;32.04;96304.84;5024917;28;20090;-78
2023/06/19 12:37:08;;;;;;;0.00;0.00;;;;;;;34.82;34.65;96299.91;5025028;28;20146;-79
2023/06/19 12:39:55;;;;;;;0.00;0.00;;;;;;;34.56;36.57;96298.56;5028185;28;20128;-78
2023/06/19 12:42:41;;;;;;;0.10;0.10;;;;;;;37.03;31.14;96295.06;5022011;28;20094;-79
2023/06/19 12:45:26;;;;;;;0.10;0.10;;;;;;;41.02;24.05;96303.72;5021191;28;20049;-80
2023/06/19 12:48:12;;;;;;;0.10;0.10;;;;;;;41.15;23.01;96307.25;5024759;28;20044;-79
2023/06/19 12:50:58;;;;;;;0.10;0.10;;;;;;;41.72;22.29;96304.50;5023073;28;20157;-79
2023/06/19 12:53:44;;;;;;;0.00;0.00;;;;;;;41.27;22.03;96307.69;5022551;28;20029;-79
2023/06/19 13:00:38;;;;;;;0.00;0.00;;;;;;;35.72;29.24;96311.69;5022100;28;20052;-80
2023/06/19 13:03:23;;;;;;;0.05;0.05;;;;;;;35.44;30.59;96312.84;5023071;28;20045;-79
2023/06/19 13:06:09;;;;;;;0.10;0.10;;;;;;;37.42;27.43;96307.53;5025590;28;20048;-80
2023/06/19 13:08:55;;;;;;;0.10;0.10;;;;;;;39.14;25.01;96298.91;5028477;28;20032;-79
2023/06/19 13:11:41;;;;;;;0.03;0.03;;;;;;;37.71;24.71;96306.97;5026639;28;20045;-80
2023/06/19 13:14:27;;;;;;;0.00;0.00;;;;;;;35.95;27.04;96306.25;5024855;28;20045;-80
2023/06/19 13:17:14;;;;;;;0.00;0.00;;;;;;;35.57;27.32;96302.75;5029162;28;20604;-80
2023/06/19 13:20:00;;;;;;;0.00;0.00;;;;;;;34.77;27.95;96305.91;5029074;28;20040;-79
2023/06/19 13:22:45;;;;;;;0.00;0.00;;;;;;;35.82;27.62;96299.66;5028042;28;20556;-79
2023/06/19 13:25:32;;;;;;;0.03;0.03;;;;;;;34.14;30.04;96296.81;5026883;28;20045;-79
2023/06/19 13:28:18;;;;;;;0.00;0.00;;;;;;;32.81;31.45;96296.41;5028655;28;20037;-79
2023/06/19 13:31:04;;;;;;;0.10;0.10;;;;;;;32.28;36.71;96290.84;5025891;28;20038;-79
2023/06/19 13:33:50;;;;;;;0.00;0.00;;;;;;;31.48;36.44;96304.81;5027244;28;20052;-79
2023/06/19 13:36:35;;;;;;;0.00;0.00;;;;;;;31.85;40.39;96288.78;5028242;28;20126;-79
2023/06/19 13:39:21;;;;;;;0.08;0.08;;;;;;;32.73;37.99;96286.53;5026579;28;20063;-79
2023/06/19 13:42:07;;;;;;;0.08;0.00;;;;;;;32.40;37.95;96291.28;5028012;28;20060;-79
2023/06/19 13:44:53;;;;;;;0.00;0.00;;;;;;;32.20;39.08;96287.28;5016156;28;20392;-79